sensor_id;sensor_type;location;lat;lon;timestamp;pressure;altitude;pressure_sealevel;temperature;humidity
19005;BME280;9635;52.078;8.648;2023-04-08T00:02:37;100992.84;;;6.75;51.06
19005;BME280;9635;52.078;8.648;2023-04-08T00:07:40;100993.44;;;6.80;51.08
19005;BME280;9635;52.078;8.648;2023-04-08T00:12:43;100983.50;;;6.82;51.54
19005;BME280;9635;52.078;8.648;2023-04-08T00:17:47;100992.25;;;6.86;51.78
19005;BME280;9635;52.078;8.648;2023-04-08T00:22:50;100995.69;;;6.88;51.83
19005;BME280;9635;52.078;8.648;2023-04-08T00:27:53;100993.09;;;6.87;52.15
19005;BME280;9635;52.078;8.648;2023-04-08T00:32:57;101002.84;;;6.88;52.50
19005;BME280;9635;52.078;8.648;2023-04-08T00:38:00;100994.97;;;6.84;52.60
19005;BME280;9635;52.078;8.648;2023-04-08T00:43:03;101001.03;;;6.88;52.58
19005;BME280;9635;52.078;8.648;2023-04-08T00:48:07;101001.75;;;6.92;52.64
19005;BME280;9635;52.078;8.648;2023-04-08T00:53:10;100997.00;;;6.97;52.78
19005;BME280;9635;52.078;8.648;2023-04-08T00:58:15;100994.28;;;6.81;53.29
19005;BME280;9635;52.078;8.648;2023-04-08T01:03:26;101004.50;;;6.90;53.54
19005;BME280;9635;52.078;8.648;2023-04-08T01:08:34;101000.44;;;6.99;53.08
19005;BME280;9635;52.078;8.648;2023-04-08T01:13:40;100997.09;;;6.95;53.67
19005;BME280;9635;52.078;8.648;2023-04-08T01:18:45;100999.25;;;6.89;54.59
19005;BME280;9635;52.078;8.648;2023-04-08T01:23:58;100994.59;;;6.92;55.23
19005;BME280;9635;52.078;8.648;2023-04-08T01:29:04;100999.31;;;7.03;55.20
19005;BME280;9635;52.078;8.648;2023-04-08T01:34:09;100994.66;;;7.06;54.95
19005;BME280;9635;52.078;8.648;2023-04-08T01:39:13;101005.47;;;7.05;54.63
19005;BME280;9635;52.078;8.648;2023-04-08T01:44:21;101008.81;;;6.93;55.46
19005;BME280;9635;52.078;8.648;2023-04-08T01:49:24;101008.44;;;6.83;55.68
19005;BME280;9635;52.078;8.648;2023-04-08T01:54:28;100999.81;;;6.78;56.58
19005;BME280;9635;52.078;8.648;2023-04-08T01:59:34;101002.66;;;6.91;56.68
19005;BME280;9635;52.078;8.648;2023-04-08T02:04:38;101001.47;;;6.96;56.62
19005;BME280;9635;52.078;8.648;2023-04-08T02:09:42;101004.00;;;6.99;57.31
19005;BME280;9635;52.078;8.648;2023-04-08T02:14:46;101004.66;;;7.03;57.65
19005;BME280;9635;52.078;8.648;2023-04-08T02:19:54;101004.56;;;7.04;58.23
19005;BME280;9635;52.078;8.648;2023-04-08T02:24:58;101004.13;;;7.12;58.38
19005;BME280;9635;52.078;8.648;2023-04-08T02:30:06;101010.44;;;7.11;58.77
19005;BME280;9635;52.078;8.648;2023-04-08T02:35:10;101018.47;;;7.11;59.46
19005;BME280;9635;52.078;8.648;2023-04-08T02:40:24;101027.50;;;7.09;59.86
19005;BME280;9635;52.078;8.648;2023-04-08T02:45:30;101022.06;;;7.10;60.44
19005;BME280;9635;52.078;8.648;2023-04-08T02:50:34;101032.75;;;7.10;60.92
19005;BME280;9635;52.078;8.648;2023-04-08T02:55:37;101031.88;;;7.10;61.34
19005;BME280;9635;52.078;8.648;2023-04-08T03:00:42;101038.25;;;7.07;61.85
19005;BME280;9635;52.078;8.648;2023-04-08T03:05:44;101028.97;;;7.14;62.25
19005;BME280;9635;52.078;8.648;2023-04-08T03:10:47;101030.97;;;7.11;62.57
19005;BME280;9635;52.078;8.648;2023-04-08T03:15:51;101036.03;;;7.15;62.56
19005;BME280;9635;52.078;8.648;2023-04-08T03:20:54;101032.75;;;7.10;62.74
19005;BME280;9635;52.078;8.648;2023-04-08T03:25:57;101027.41;;;7.10;62.98
19005;BME280;9635;52.078;8.648;2023-04-08T03:31:03;101030.06;;;7.10;63.65
19005;BME280;9635;52.078;8.648;2023-04-08T03:36:06;101039.84;;;7.11;64.68
19005;BME280;9635;52.078;8.648;2023-04-08T03:41:10;101052.59;;;7.06;65.52
19005;BME280;9635;52.078;8.648;2023-04-08T03:46:14;101040.69;;;6.96;65.76
19005;BME280;9635;52.078;8.648;2023-04-08T03:51:17;101039.31;;;6.89;65.66
19005;BME280;9635;52.078;8.648;2023-04-08T03:56:20;101052.38;;;6.93;65.41
19005;BME280;9635;52.078;8.648;2023-04-08T04:01:24;101050.56;;;6.94;64.83
19005;BME280;9635;52.078;8.648;2023-04-08T04:06:27;101042.50;;;6.95;64.85
19005;BME280;9635;52.078;8.648;2023-04-08T04:11:30;101041.97;;;6.89;64.45
19005;BME280;9635;52.078;8.648;2023-04-08T04:16:34;101052.50;;;6.74;64.77
19005;BME280;9635;52.078;8.648;2023-04-08T04:21:37;101050.63;;;6.76;64.77
19005;BME280;9635;52.078;8.648;2023-04-08T04:26:40;101049.84;;;6.74;65.05
19005;BME280;9635;52.078;8.648;2023-04-08T04:31:44;101058.63;;;6.76;64.80
19005;BME280;9635;52.078;8.648;2023-04-08T04:36:47;101054.44;;;6.88;64.88
19005;BME280;9635;52.078;8.648;2023-04-08T04:41:50;101062.41;;;6.90;64.93
19005;BME280;9635;52.078;8.648;2023-04-08T04:46:55;101071.25;;;6.90;65.12
19005;BME280;9635;52.078;8.648;2023-04-08T04:51:58;101065.19;;;6.87;65.40
19005;BME280;9635;52.078;8.648;2023-04-08T04:57:01;101066.31;;;6.82;65.50
19005;BME280;9635;52.078;8.648;2023-04-08T05:02:05;101068.69;;;6.71;65.13
19005;BME280;9635;52.078;8.648;2023-04-08T05:07:08;101071.19;;;6.74;65.01
19005;BME280;9635;52.078;8.648;2023-04-08T05:12:11;101073.09;;;6.72;64.94
19005;BME280;9635;52.078;8.648;2023-04-08T05:17:15;101074.66;;;6.76;64.90
19005;BME280;9635;52.078;8.648;2023-04-08T05:22:18;101084.66;;;6.73;64.92
19005;BME280;9635;52.078;8.648;2023-04-08T05:27:21;101099.72;;;6.74;65.09
19005;BME280;9635;52.078;8.648;2023-04-08T05:32:25;101091.34;;;6.80;65.00
19005;BME280;9635;52.078;8.648;2023-04-08T05:37:28;101103.84;;;6.79;64.70
19005;BME280;9635;52.078;8.648;2023-04-08T05:42:31;101105.91;;;6.74;64.71
19005;BME280;9635;52.078;8.648;2023-04-08T05:47:35;101104.03;;;6.76;64.55
19005;BME280;9635;52.078;8.648;2023-04-08T05:52:41;101100.00;;;6.85;64.23
19005;BME280;9635;52.078;8.648;2023-04-08T05:57:45;101104.53;;;7.00;65.17
19005;BME280;9635;52.078;8.648;2023-04-08T06:02:49;101122.94;;;7.38;64.92
19005;BME280;9635;52.078;8.648;2023-04-08T06:07:52;101128.78;;;7.77;63.79
19005;BME280;9635;52.078;8.648;2023-04-08T06:12:55;101131.13;;;7.67;62.54
19005;BME280;9635;52.078;8.648;2023-04-08T06:17:59;101137.00;;;7.73;62.25
19005;BME280;9635;52.078;8.648;2023-04-08T06:23:02;101125.94;;;7.48;62.42
19005;BME280;9635;52.078;8.648;2023-04-08T06:28:05;101145.34;;;7.67;62.60
19005;BME280;9635;52.078;8.648;2023-04-08T06:33:09;101158.47;;;7.88;63.00
19005;BME280;9635;52.078;8.648;2023-04-08T06:38:12;101161.63;;;7.79;62.59
19005;BME280;9635;52.078;8.648;2023-04-08T06:43:14;101168.75;;;7.80;63.26
19005;BME280;9635;52.078;8.648;2023-04-08T06:48:19;101178.41;;;7.66;63.83
19005;BME280;9635;52.078;8.648;2023-04-08T06:53:24;101181.06;;;7.66;63.13
19005;BME280;9635;52.078;8.648;2023-04-08T06:58:27;101179.44;;;7.64;62.89
19005;BME280;9635;52.078;8.648;2023-04-08T07:03:32;101182.78;;;7.83;62.91
19005;BME280;9635;52.078;8.648;2023-04-08T07:08:35;101193.47;;;7.99;61.91
19005;BME280;9635;52.078;8.648;2023-04-08T07:13:39;101194.84;;;8.06;62.13
19005;BME280;9635;52.078;8.648;2023-04-08T07:18:43;101196.16;;;7.99;61.83
19005;BME280;9635;52.078;8.648;2023-04-08T07:23:46;101192.06;;;8.24;61.71
19005;BME280;9635;52.078;8.648;2023-04-08T07:28:49;101207.22;;;8.39;61.22
19005;BME280;9635;52.078;8.648;2023-04-08T07:33:53;101204.50;;;8.09;61.82
19005;BME280;9635;52.078;8.648;2023-04-08T07:38:56;101210.88;;;8.22;62.08
19005;BME280;9635;52.078;8.648;2023-04-08T07:43:59;101218.28;;;8.33;61.67
19005;BME280;9635;52.078;8.648;2023-04-08T07:49:03;101219.88;;;8.21;61.82
19005;BME280;9635;52.078;8.648;2023-04-08T07:54:06;101217.22;;;8.05;62.91
19005;BME280;9635;52.078;8.648;2023-04-08T07:59:10;101224.44;;;8.03;63.26
19005;BME280;9635;52.078;8.648;2023-04-08T08:04:15;101236.13;;;8.02;63.44
19005;BME280;9635;52.078;8.648;2023-04-08T08:09:18;101228.91;;;8.34;63.28
19005;BME280;9635;52.078;8.648;2023-04-08T08:14:21;101230.38;;;8.56;62.83
19005;BME280;9635;52.078;8.648;2023-04-08T08:19:25;101230.09;;;8.75;62.19
19005;BME280;9635;52.078;8.648;2023-04-08T08:24:28;101234.03;;;9.14;61.84
19005;BME280;9635;52.078;8.648;2023-04-08T08:29:31;101236.63;;;9.44;60.24
19005;BME280;9635;52.078;8.648;2023-04-08T08:34:35;101235.03;;;9.83;60.00
19005;BME280;9635;52.078;8.648;2023-04-08T08:39:38;101239.44;;;9.84;58.70
19005;BME280;9635;52.078;8.648;2023-04-08T08:44:41;101246.09;;;9.49;59.53
19005;BME280;9635;52.078;8.648;2023-04-08T08:49:46;101243.28;;;9.80;59.51
19005;BME280;9635;52.078;8.648;2023-04-08T08:54:56;101242.44;;;10.48;58.05
19005;BME280;9635;52.078;8.648;2023-04-08T08:59:59;101247.44;;;11.19;55.66
19005;BME280;9635;52.078;8.648;2023-04-08T09:05:04;101247.16;;;10.84;55.64
19005;BME280;9635;52.078;8.648;2023-04-08T09:10:07;101259.13;;;10.66;56.52
19005;BME280;9635;52.078;8.648;2023-04-08T09:15:11;101260.91;;;10.39;57.09
19005;BME280;9635;52.078;8.648;2023-04-08T09:20:15;101258.59;;;10.60;57.48
19005;BME280;9635;52.078;8.648;2023-04-08T09:25:22;101254.53;;;11.33;55.91
19005;BME280;9635;52.078;8.648;2023-04-08T09:30:26;101257.41;;;11.68;54.56
19005;BME280;9635;52.078;8.648;2023-04-08T09:35:30;101252.78;;;12.55;52.89
19005;BME280;9635;52.078;8.648;2023-04-08T09:40:33;101263.03;;;12.50;52.12
19005;BME280;9635;52.078;8.648;2023-04-08T09:45:38;101257.84;;;12.60;52.21
19005;BME280;9635;52.078;8.648;2023-04-08T09:50:48;101264.59;;;12.42;52.38
19005;BME280;9635;52.078;8.648;2023-04-08T09:55:55;101286.09;;;11.93;53.41
19005;BME280;9635;52.078;8.648;2023-04-08T10:00:58;101284.53;;;11.40;54.64
19005;BME280;9635;52.078;8.648;2023-04-08T10:06:04;101294.59;;;10.98;55.89
19005;BME280;9635;52.078;8.648;2023-04-08T10:11:09;101297.97;;;10.74;56.88
19005;BME280;9635;52.078;8.648;2023-04-08T10:16:19;101301.19;;;10.79;56.96
19005;BME280;9635;52.078;8.648;2023-04-08T10:21:39;101307.63;;;10.37;57.62
19005;BME280;9635;52.078;8.648;2023-04-08T10:26:44;101298.28;;;10.15;58.62
19005;BME280;9635;52.078;8.648;2023-04-08T10:31:50;101302.38;;;10.21;58.49
19005;BME280;9635;52.078;8.648;2023-04-08T10:36:55;101315.91;;;10.20;58.91
19005;BME280;9635;52.078;8.648;2023-04-08T10:42:00;101307.84;;;10.20;58.91
19005;BME280;9635;52.078;8.648;2023-04-08T10:47:04;101296.19;;;10.33;59.13
19005;BME280;9635;52.078;8.648;2023-04-08T10:52:09;101305.06;;;10.21;58.86
19005;BME280;9635;52.078;8.648;2023-04-08T10:57:12;101307.34;;;10.27;59.41
19005;BME280;9635;52.078;8.648;2023-04-08T11:02:15;101302.25;;;10.64;58.32
19005;BME280;9635;52.078;8.648;2023-04-08T11:07:20;101306.34;;;10.43;58.50
19005;BME280;9635;52.078;8.648;2023-04-08T11:12:24;101300.09;;;10.69;58.34
19005;BME280;9635;52.078;8.648;2023-04-08T11:17:28;101307.59;;;11.04;57.82
19005;BME280;9635;52.078;8.648;2023-04-08T11:22:33;101312.28;;;10.88;57.26
19005;BME280;9635;52.078;8.648;2023-04-08T11:27:37;101315.16;;;10.72;57.88
19005;BME280;9635;52.078;8.648;2023-04-08T11:32:40;101307.91;;;10.87;58.30
19005;BME280;9635;52.078;8.648;2023-04-08T11:37:44;101303.50;;;10.98;57.84
19005;BME280;9635;52.078;8.648;2023-04-08T11:42:48;101300.94;;;11.10;57.98
19005;BME280;9635;52.078;8.648;2023-04-08T11:47:51;101297.88;;;11.67;56.82
19005;BME280;9635;52.078;8.648;2023-04-08T11:52:56;101293.34;;;12.30;55.04
19005;BME280;9635;52.078;8.648;2023-04-08T11:58:01;101292.16;;;12.21;54.10
19005;BME280;9635;52.078;8.648;2023-04-08T12:03:05;101284.91;;;12.22;54.84
19005;BME280;9635;52.078;8.648;2023-04-08T12:08:09;101294.19;;;12.54;54.14
19005;BME280;9635;52.078;8.648;2023-04-08T12:13:12;101303.91;;;12.57;53.74
19005;BME280;9635;52.078;8.648;2023-04-08T12:18:15;101303.69;;;12.23;54.09
19005;BME280;9635;52.078;8.648;2023-04-08T12:23:19;101303.59;;;12.12;54.94
19005;BME280;9635;52.078;8.648;2023-04-08T12:28:22;101312.94;;;12.19;54.71
19005;BME280;9635;52.078;8.648;2023-04-08T12:33:24;101304.97;;;12.17;54.92
19005;BME280;9635;52.078;8.648;2023-04-08T12:38:29;101303.47;;;12.13;54.23
19005;BME280;9635;52.078;8.648;2023-04-08T12:43:32;101312.56;;;11.87;55.32
19005;BME280;9635;52.078;8.648;2023-04-08T12:48:35;101304.31;;;11.64;56.01
19005;BME280;9635;52.078;8.648;2023-04-08T12:53:39;101315.97;;;11.39;57.01
19005;BME280;9635;52.078;8.648;2023-04-08T12:58:42;101319.81;;;11.35;56.90
19005;BME280;9635;52.078;8.648;2023-04-08T13:03:45;101320.97;;;11.18;57.44
19005;BME280;9635;52.078;8.648;2023-04-08T13:08:50;101322.19;;;11.14;58.17
19005;BME280;9635;52.078;8.648;2023-04-08T13:13:53;101316.59;;;11.43;57.66
19005;BME280;9635;52.078;8.648;2023-04-08T13:18:56;101325.22;;;11.48;57.10
19005;BME280;9635;52.078;8.648;2023-04-08T13:24:00;101324.00;;;11.26;57.72
19005;BME280;9635;52.078;8.648;2023-04-08T13:29:03;101319.75;;;11.10;58.09
19005;BME280;9635;52.078;8.648;2023-04-08T13:34:07;101314.34;;;10.97;58.68
19005;BME280;9635;52.078;8.648;2023-04-08T13:39:11;101316.59;;;10.90;58.68
19005;BME280;9635;52.078;8.648;2023-04-08T13:44:14;101313.81;;;10.92;58.81
19005;BME280;9635;52.078;8.648;2023-04-08T13:49:17;101312.28;;;10.88;59.08
19005;BME280;9635;52.078;8.648;2023-04-08T13:54:22;101315.72;;;11.17;58.50
19005;BME280;9635;52.078;8.648;2023-04-08T13:59:25;101292.94;;;11.61;57.55
19005;BME280;9635;52.078;8.648;2023-04-08T14:04:28;101295.25;;;11.91;56.95
19005;BME280;9635;52.078;8.648;2023-04-08T14:09:32;101301.66;;;12.01;56.67
19005;BME280;9635;52.078;8.648;2023-04-08T14:14:36;101296.84;;;11.93;56.06
19005;BME280;9635;52.078;8.648;2023-04-08T14:19:39;101301.50;;;11.91;56.26
19005;BME280;9635;52.078;8.648;2023-04-08T14:24:43;101303.69;;;11.48;56.96
19005;BME280;9635;52.078;8.648;2023-04-08T14:29:46;101308.97;;;11.37;57.69
19005;BME280;9635;52.078;8.648;2023-04-08T14:34:49;101306.56;;;11.32;57.62
19005;BME280;9635;52.078;8.648;2023-04-08T14:39:53;101307.13;;;11.24;58.50
19005;BME280;9635;52.078;8.648;2023-04-08T14:44:57;101308.41;;;11.19;58.33
19005;BME280;9635;52.078;8.648;2023-04-08T14:49:59;101312.56;;;10.97;58.83
19005;BME280;9635;52.078;8.648;2023-04-08T14:55:04;101315.41;;;10.81;59.41
19005;BME280;9635;52.078;8.648;2023-04-08T15:00:08;101307.00;;;10.73;60.14
19005;BME280;9635;52.078;8.648;2023-04-08T15:05:11;101310.88;;;10.82;60.14
19005;BME280;9635;52.078;8.648;2023-04-08T15:10:15;101302.56;;;10.72;59.95
19005;BME280;9635;52.078;8.648;2023-04-08T15:15:18;101313.03;;;10.77;60.51
19005;BME280;9635;52.078;8.648;2023-04-08T15:20:21;101314.78;;;10.91;60.27
19005;BME280;9635;52.078;8.648;2023-04-08T15:25:25;101308.22;;;11.22;59.60
19005;BME280;9635;52.078;8.648;2023-04-08T15:30:28;101304.63;;;11.72;57.84
19005;BME280;9635;52.078;8.648;2023-04-08T15:35:36;101306.91;;;11.66;57.49
19005;BME280;9635;52.078;8.648;2023-04-08T15:40:41;101304.44;;;11.63;58.24
19005;BME280;9635;52.078;8.648;2023-04-08T15:45:48;101313.59;;;11.47;58.03
19005;BME280;9635;52.078;8.648;2023-04-08T15:50:50;101319.69;;;11.24;59.29
19005;BME280;9635;52.078;8.648;2023-04-08T15:55:55;101319.09;;;11.33;59.32
19005;BME280;9635;52.078;8.648;2023-04-08T16:00:58;101325.25;;;11.08;59.63
19005;BME280;9635;52.078;8.648;2023-04-08T16:06:01;101322.81;;;10.78;60.30
19005;BME280;9635;52.078;8.648;2023-04-08T16:11:05;101317.13;;;10.55;61.18
19005;BME280;9635;52.078;8.648;2023-04-08T16:16:08;101325.19;;;10.55;61.31
19005;BME280;9635;52.078;8.648;2023-04-08T16:21:12;101325.09;;;10.57;61.38
19005;BME280;9635;52.078;8.648;2023-04-08T16:26:17;101331.88;;;10.35;61.96
19005;BME280;9635;52.078;8.648;2023-04-08T16:31:20;101334.44;;;10.10;62.65
19005;BME280;9635;52.078;8.648;2023-04-08T16:36:23;101338.19;;;10.07;63.18
19005;BME280;9635;52.078;8.648;2023-04-08T16:41:27;101343.81;;;10.03;62.97
19005;BME280;9635;52.078;8.648;2023-04-08T16:46:30;101346.25;;;9.93;63.20
19005;BME280;9635;52.078;8.648;2023-04-08T16:51:33;101363.34;;;9.76;63.54
19005;BME280;9635;52.078;8.648;2023-04-08T16:56:37;101358.28;;;9.71;63.74
19005;BME280;9635;52.078;8.648;2023-04-08T17:01:44;101349.19;;;9.74;63.78
19005;BME280;9635;52.078;8.648;2023-04-08T17:06:47;101361.25;;;9.67;63.87
19005;BME280;9635;52.078;8.648;2023-04-08T17:11:51;101369.47;;;9.49;64.37
19005;BME280;9635;52.078;8.648;2023-04-08T17:16:56;101367.47;;;9.53;63.96
19005;BME280;9635;52.078;8.648;2023-04-08T17:21:58;101374.91;;;9.48;63.85
19005;BME280;9635;52.078;8.648;2023-04-08T17:27:03;101371.00;;;9.54;63.92
19005;BME280;9635;52.078;8.648;2023-04-08T17:32:06;101368.13;;;9.42;64.36
19005;BME280;9635;52.078;8.648;2023-04-08T17:37:09;101375.19;;;9.43;64.37
19005;BME280;9635;52.078;8.648;2023-04-08T17:42:13;101372.28;;;9.32;64.93
19005;BME280;9635;52.078;8.648;2023-04-08T17:47:17;101373.63;;;9.25;64.99
19005;BME280;9635;52.078;8.648;2023-04-08T17:52:21;101374.50;;;9.25;65.37
19005;BME280;9635;52.078;8.648;2023-04-08T17:57:25;101375.06;;;9.16;65.53
19005;BME280;9635;52.078;8.648;2023-04-08T18:02:28;101376.00;;;9.15;65.75
19005;BME280;9635;52.078;8.648;2023-04-08T18:07:32;101382.50;;;9.11;65.97
19005;BME280;9635;52.078;8.648;2023-04-08T18:12:36;101377.31;;;9.08;66.09
19005;BME280;9635;52.078;8.648;2023-04-08T18:17:39;101394.44;;;9.05;65.82
19005;BME280;9635;52.078;8.648;2023-04-08T18:22:41;101401.91;;;9.00;65.63
19005;BME280;9635;52.078;8.648;2023-04-08T18:27:46;101410.31;;;8.94;65.70
19005;BME280;9635;52.078;8.648;2023-04-08T18:32:49;101410.38;;;8.93;65.52
19005;BME280;9635;52.078;8.648;2023-04-08T18:37:52;101415.91;;;8.90;65.63
19005;BME280;9635;52.078;8.648;2023-04-08T18:42:56;101420.91;;;8.80;65.95
19005;BME280;9635;52.078;8.648;2023-04-08T18:48:02;101426.63;;;8.74;66.19
19005;BME280;9635;52.078;8.648;2023-04-08T18:53:05;101425.97;;;8.70;66.12
19005;BME280;9635;52.078;8.648;2023-04-08T18:58:09;101442.28;;;8.81;65.73
19005;BME280;9635;52.078;8.648;2023-04-08T19:03:12;101440.47;;;8.82;65.97
19005;BME280;9635;52.078;8.648;2023-04-08T19:08:15;101458.28;;;8.67;66.41
19005;BME280;9635;52.078;8.648;2023-04-08T19:13:19;101451.34;;;8.63;66.02
19005;BME280;9635;52.078;8.648;2023-04-08T19:18:24;101445.91;;;8.65;65.82
19005;BME280;9635;52.078;8.648;2023-04-08T19:23:27;101455.47;;;8.53;65.59
19005;BME280;9635;52.078;8.648;2023-04-08T19:28:31;101466.19;;;8.53;65.39
19005;BME280;9635;52.078;8.648;2023-04-08T19:33:34;101462.66;;;8.52;65.19
19005;BME280;9635;52.078;8.648;2023-04-08T19:38:37;101470.06;;;8.47;65.12
19005;BME280;9635;52.078;8.648;2023-04-08T19:43:41;101470.97;;;8.30;65.15
19005;BME280;9635;52.078;8.648;2023-04-08T19:48:44;101467.78;;;8.24;65.11
19005;BME280;9635;52.078;8.648;2023-04-08T19:53:47;101472.34;;;8.22;65.44
19005;BME280;9635;52.078;8.648;2023-04-08T19:58:53;101470.56;;;8.05;65.57
19005;BME280;9635;52.078;8.648;2023-04-08T20:03:55;101461.63;;;8.22;65.08
19005;BME280;9635;52.078;8.648;2023-04-08T20:08:58;101461.56;;;8.23;64.92
19005;BME280;9635;52.078;8.648;2023-04-08T20:14:07;101471.25;;;8.08;65.07
19005;BME280;9635;52.078;8.648;2023-04-08T20:19:10;101465.84;;;7.92;65.44
19005;BME280;9635;52.078;8.648;2023-04-08T20:24:13;101469.34;;;7.77;65.48
19005;BME280;9635;52.078;8.648;2023-04-08T20:29:18;101471.88;;;7.63;66.11
19005;BME280;9635;52.078;8.648;2023-04-08T20:34:20;101475.75;;;7.57;66.19
19005;BME280;9635;52.078;8.648;2023-04-08T20:39:23;101479.66;;;7.50;66.60
19005;BME280;9635;52.078;8.648;2023-04-08T20:44:31;101473.75;;;7.43;66.61
19005;BME280;9635;52.078;8.648;2023-04-08T20:49:34;101475.69;;;7.40;66.72
19005;BME280;9635;52.078;8.648;2023-04-08T20:54:41;101471.38;;;7.37;66.76
19005;BME280;9635;52.078;8.648;2023-04-08T20:59:45;101475.31;;;7.30;66.75
19005;BME280;9635;52.078;8.648;2023-04-08T21:04:48;101477.75;;;7.35;66.91
19005;BME280;9635;52.078;8.648;2023-04-08T21:09:51;101472.66;;;7.30;67.06
19005;BME280;9635;52.078;8.648;2023-04-08T21:14:55;101470.34;;;7.22;67.26
19005;BME280;9635;52.078;8.648;2023-04-08T21:19:58;101470.03;;;7.11;67.41
19005;BME280;9635;52.078;8.648;2023-04-08T21:25:01;101480.53;;;6.97;67.35
19005;BME280;9635;52.078;8.648;2023-04-08T21:30:06;101483.81;;;6.83;67.59
19005;BME280;9635;52.078;8.648;2023-04-08T21:35:09;101482.16;;;6.80;67.93
19005;BME280;9635;52.078;8.648;2023-04-08T21:40:12;101483.38;;;6.73;67.88
19005;BME280;9635;52.078;8.648;2023-04-08T21:45:16;101486.84;;;6.56;68.07
19005;BME280;9635;52.078;8.648;2023-04-08T21:50:19;101486.19;;;6.51;68.32
19005;BME280;9635;52.078;8.648;2023-04-08T21:55:22;101478.50;;;6.45;68.61
19005;BME280;9635;52.078;8.648;2023-04-08T22:00:27;101487.50;;;6.43;68.82
19005;BME280;9635;52.078;8.648;2023-04-08T22:05:30;101484.13;;;6.39;68.72
19005;BME280;9635;52.078;8.648;2023-04-08T22:10:33;101479.59;;;6.21;68.58
19005;BME280;9635;52.078;8.648;2023-04-08T22:15:37;101477.00;;;6.19;69.00
19005;BME280;9635;52.078;8.648;2023-04-08T22:20:40;101474.75;;;6.10;69.10
19005;BME280;9635;52.078;8.648;2023-04-08T22:25:43;101479.94;;;6.13;69.39
19005;BME280;9635;52.078;8.648;2023-04-08T22:30:47;101472.81;;;6.13;69.45
19005;BME280;9635;52.078;8.648;2023-04-08T22:35:51;101472.81;;;6.13;69.82
19005;BME280;9635;52.078;8.648;2023-04-08T22:40:53;101470.94;;;6.15;69.67
19005;BME280;9635;52.078;8.648;2023-04-08T22:45:58;101475.03;;;6.04;69.51
19005;BME280;9635;52.078;8.648;2023-04-08T22:51:00;101466.91;;;5.86;69.45
19005;BME280;9635;52.078;8.648;2023-04-08T22:56:04;101471.03;;;5.73;69.79
19005;BME280;9635;52.078;8.648;2023-04-08T23:01:12;101472.16;;;5.67;70.00
19005;BME280;9635;52.078;8.648;2023-04-08T23:06:17;101477.50;;;5.67;70.22
19005;BME280;9635;52.078;8.648;2023-04-08T23:11:20;101472.56;;;5.58;70.14
19005;BME280;9635;52.078;8.648;2023-04-08T23:16:24;101477.50;;;5.47;70.62
19005;BME280;9635;52.078;8.648;2023-04-08T23:21:27;101474.75;;;5.48;70.92
19005;BME280;9635;52.078;8.648;2023-04-08T23:26:29;101468.44;;;5.51;71.21
19005;BME280;9635;52.078;8.648;2023-04-08T23:31:34;101475.25;;;5.58;71.31
19005;BME280;9635;52.078;8.648;2023-04-08T23:36:36;101472.91;;;5.71;71.01
19005;BME280;9635;52.078;8.648;2023-04-08T23:41:39;101466.09;;;5.64;70.32
19005;BME280;9635;52.078;8.648;2023-04-08T23:46:43;101467.69;;;5.47;70.84
19005;BME280;9635;52.078;8.648;2023-04-08T23:51:46;101467.25;;;5.38;71.18
19005;BME280;9635;52.078;8.648;2023-04-08T23:56:49;101471.25;;;5.26;71.34
